Latest Coastal Weather Observations for Bairnsdale

IDV60701

Issued at 6:11 am EST Friday 26 August 2016 (issued every 10 minutes, with the page automatically refreshed every 10 minutes)

About coastal observations | Map of coastal stations | Coastal observations for VIC | Marine services | Other Formats
Station Details ID: 085279 Name: BAIRNSDALE AIRPORT Lat: -37.88 Lon: 147.57 Height: 49.4 m
Data from the previous 72 hours. | See also: Recent months at Bairnsdale
Date/Time
EST
Temp
°C
Wind Pressure Rain since
9am
mm
Weather Cloud Vis
km
Sea
Height
m
Swell
Dir  Spd
kts
Gust
kts
hPa Trend Height
m
Period
s
Dir
26/06:00am 7.0 W 7 10 1019.5 - 0.0 - Mostly cloudy 10 - - - -
26/05:30am 7.7 W 9 12 1019.2 - 0.0 - Partly cloudy 10 - - - -
26/05:00am 7.8 W 9 12 1018.8 - 0.0 - Cloudy 10 - - - -
26/04:30am 7.7 W 9 11 1018.5 - 0.0 - Partly cloudy 10 - - - -
26/04:00am 7.5 W 11 15 1018.3 - 0.0 - Cloudy 10 - - - -
26/03:30am 7.5 W 10 13 1018.1 - 0.0 - Cloudy 10 - - - -
26/03:00am 7.4 W 10 13 1018.1 - 0.0 - Mostly cloudy 10 - - - -
26/02:30am 6.9 W 10 13 1018.0 - 0.0 - Partly cloudy 10 - - - -
26/02:00am 6.9 W 10 13 1018.1 - 0.0 - Partly cloudy 10 - - - -
26/01:30am 7.3 W 10 15 1018.1 - 0.0 - Partly cloudy 10 - - - -
26/01:00am 6.6 W 9 12 1018.1 - 0.0 - Partly cloudy 10 - - - -
26/12:30am 5.9 WNW 8 10 1018.0 - 0.0 - - 10 - - - -
26/12:00am 4.2 WNW 7 8 1018.0 - 0.0 - - 10 - - - -
 
Date/Time
EST
Temp
°C
Wind Pressure Rain since
9am
mm
Weather Cloud Vis
km
Sea
Height
m
Swell
Dir  Spd
kts
Gust
kts
hPa Trend Height
m
Period
s
Dir
25/11:30pm 5.4 WNW 6 8 1018.0 - 0.0 - - 10 - - - -
25/11:00pm 6.9 WNW 8 12 1017.9 - 0.0 - Partly cloudy 10 - - - -
25/10:30pm 7.1 W 10 14 1017.8 - 0.0 - Partly cloudy 10 - - - -
25/10:00pm 7.2 WNW 9 11 1017.7 - 0.0 - Partly cloudy 10 - - - -
25/09:30pm 7.3 WNW 9 11 1017.6 - 0.0 - Partly cloudy 10 - - - -
25/09:00pm 7.2 WNW 9 11 1017.4 - 0.0 - Mostly cloudy 10 - - - -
25/08:30pm 6.9 W 9 11 1017.2 - 0.0 - Partly cloudy 10 - - - -
25/08:00pm 6.2 W 7 9 1017.0 - 0.0 - - 10 - - - -
25/07:30pm 6.5 W 5 6 1016.6 - 0.0 - Partly cloudy 10 - - - -
25/07:00pm 6.4 WSW 5 5 1016.2 - 0.0 - Partly cloudy 10 - - - -
25/06:30pm 6.5 WSW 6 7 1015.7 - 0.0 - Partly cloudy 10 - - - -
25/06:00pm 6.8 SW 7 8 1015.2 - 0.0 - Partly cloudy 10 - - - -
25/05:30pm 7.9 SSW 4 5 1014.6 - 0.0 - Partly cloudy 10 - - - -
25/05:00pm 8.5 WSW 6 7 1014.1 - 0.0 - Partly cloudy 10 - - - -
25/04:30pm 9.7 SW 7 9 1013.9 - 0.0 - Partly cloudy 10 - - - -
25/04:00pm 11.5 SW 11 15 1013.6 - 0.0 - Partly cloudy 10 - - - -
25/03:30pm 10.9 WSW 13 19 1013.4 - 0.0 - Partly cloudy 10 - - - -
25/03:00pm 12.2 SW 15 20 1013.4 - 0.0 - Partly cloudy 10 - - - -
25/02:30pm 9.9 WSW 11 14 1013.2 - 0.0 - Partly cloudy 10 - - - -
25/02:00pm 11.8 WSW 17 21 1013.0 - 0.0 - Partly cloudy 10 - - - -
25/01:46pm 11.7 WSW 15 21 1013.0 - 0.0 - Partly cloudy 10 - - - -
25/01:30pm 10.9 SSW 6 9 1012.8 - 0.0 - Partly cloudy 10 - - - -
25/01:00pm 11.0 SSW 13 20 1012.9 - 0.0 - Partly cloudy 10 - - - -
25/12:30pm 11.6 W 13 18 1012.9 - 0.0 - Partly cloudy 10 - - - -
25/12:00pm 11.1 WSW 13 18 1013.2 - 0.0 - Mostly cloudy 10 - - - -
25/11:30am 10.7 WSW 12 17 1013.5 - 0.0 - Partly cloudy 10 - - - -
25/11:00am 10.1 WSW 10 18 1013.5 - 0.0 - Partly cloudy 10 - - - -
25/10:30am 10.4 W 12 16 1013.3 - 0.0 - Partly cloudy 10 - - - -
25/10:00am 10.6 W 11 17 1013.1 - 0.0 - Partly cloudy 10 - - - -
25/09:30am 9.6 W 12 17 1013.1 - 0.0 - Partly cloudy 10 - - - -
25/09:00am 7.9 W 11 16 1013.0 - 0.4 - Mostly cloudy 10 - - - -
25/08:30am 7.3 WNW 8 11 1013.0 - 0.4 - - 10 - - - -
25/08:00am 6.5 WNW 8 10 1012.6 - 0.4 - - 10 - - - -
25/07:30am 5.5 WNW 9 10 1012.3 - 0.4 - - 10 - - - -
25/07:00am 4.5 W 9 11 1012.1 - 0.4 - - 10 - - - -
25/06:30am 3.0 WNW 6 8 1011.8 - 0.4 - - 10 - - - -
25/06:00am 2.6 NW 5 7 1011.6 - 0.4 - - 10 - - - -
25/05:30am 3.3 NW 7 9 1011.3 - 0.4 - - 10 - - - -
25/05:00am 3.8 NW 7 9 1011.4 - 0.4 - Partly cloudy 10 - - - -
25/04:30am 4.0 WNW 8 9 1011.4 - 0.2 - Partly cloudy 10 - - - -
25/04:00am 3.5 WNW 7 9 1011.3 - 0.2 - - 10 - - - -
25/03:30am 2.7 NW 5 7 1011.4 - 0.2 - Partly cloudy 10 - - - -
25/03:00am 4.3 WNW 6 9 1011.7 - 0.2 - - 10 - - - -
25/02:30am 5.2 WNW 7 9 1011.8 - 0.2 - - 10 - - - -
25/02:00am 5.2 WNW 7 8 1011.7 - 0.2 - - 10 - - - -
25/01:30am 5.4 WNW 6 7 1012.0 - 0.2 - Partly cloudy 10 - - - -
25/01:00am 6.1 NW 6 7 1012.1 - 0.2 - Partly cloudy 10 - - - -
25/12:30am 7.0 WNW 6 7 1012.3 - 0.2 - Cloudy 10 - - - -
25/12:00am 7.4 WNW 7 8 1012.4 - 0.2 - Cloudy 10 - - - -
 
Date/Time
EST
Temp
°C
Wind Pressure Rain since
9am
mm
Weather Cloud Vis
km
Sea
Height
m
Swell
Dir  Spd
kts
Gust
kts
hPa Trend Height
m
Period
s
Dir
24/11:30pm 7.5 W 7 9 1012.5 - 0.2 - Cloudy 10 - - - -
24/11:00pm 7.7 W 7 9 1012.7 - 0.2 - Cloudy 10 - - - -
24/10:30pm 7.7 W 6 7 1012.9 - 0.2 - Partly cloudy 10 - - - -
24/10:00pm 8.1 W 5 7 1013.1 - 0.2 - Partly cloudy 10 - - - -
24/09:30pm 8.2 W 6 7 1013.2 - 0.0 - Partly cloudy 10 - - - -
24/09:00pm 7.8 NW 5 6 1013.1 - 0.0 - Cloudy 10 - - - -
24/08:30pm 7.5 NW 5 6 1013.2 - 0.0 - Partly cloudy 10 - - - -
24/08:00pm 6.8 NW 4 5 1013.3 - 0.0 - Partly cloudy 10 - - - -
24/07:30pm 6.4 NW 3 4 1013.2 - 0.0 - Cloudy 10 - - - -
24/07:00pm 5.4 CALM 0 0 1012.9 - 0.0 - Partly cloudy 10 - - - -
24/06:30pm 6.1 SSW 4 4 1012.8 - 0.0 - Partly cloudy 10 - - - -
24/06:00pm 8.4 S 5 6 1012.8 - 0.0 - - 10 - - - -
24/05:30pm 9.4 SSE 5 7 1012.6 - 0.0 - - 10 - - - -
24/05:00pm 10.3 SSE 7 9 1012.5 - 0.0 - - 10 - - - -
24/04:30pm 11.1 SSE 9 12 1012.4 - 0.0 - - 10 - - - -
24/04:00pm 11.6 SSE 9 11 1012.3 - 0.0 - Partly cloudy 10 - - - -
24/03:30pm 11.8 SSE 6 8 1012.5 - 0.0 - Partly cloudy 10 - - - -
24/03:00pm 11.4 SSE 7 10 1012.6 - 0.0 - Mostly cloudy 10 - - - -
24/02:30pm 12.1 SSE 9 12 1012.5 - 0.0 - Partly cloudy 10 - - - -
24/02:00pm 12.0 SW 5 7 1012.9 - 0.0 - Partly cloudy 10 - - - -
24/01:30pm 12.8 ESE 3 7 1013.1 - 0.0 - Partly cloudy 10 - - - -
24/01:00pm 12.0 WSW 2 4 1013.6 - 0.0 - Partly cloudy 10 - - - -
24/12:30pm 11.2 W 3 5 1014.1 - 0.0 - Partly cloudy 10 - - - -
24/12:00pm 11.3 WNW 2 6 1014.4 - 0.0 - Partly cloudy 10 - - - -
24/11:30am 12.0 SW 5 9 1014.6 - 0.0 - Partly cloudy 10 - - - -
24/11:00am 11.3 W 4 6 1015.0 - 0.0 - Partly cloudy 10 - - - -
24/10:30am 10.8 NW 4 6 1015.4 - 0.0 - - 10 - - - -
24/10:00am 9.9 WNW 5 7 1015.9 - 0.0 - - 10 - - - -
24/09:30am 9.1 NNW 6 7 1016.3 - 0.0 - - 10 - - - -
24/09:00am 8.2 NW 7 8 1016.6 - 0.0 - - 10 - - - -
24/08:30am 7.3 NW 7 9 1016.6 - 0.0 - - 10 - - - -
24/08:00am 5.8 WNW 7 9 1016.8 - 0.0 - - 10 - - - -
24/07:30am 4.3 WNW 7 9 1016.6 - 0.0 - - 10 - - - -
24/07:00am 4.6 NW 9 12 1016.3 - 0.0 - - 10 - - - -
24/06:30am 3.0 WNW 8 9 1016.3 - 0.0 - - 10 - - - -
24/06:00am 2.7 NW 7 8 1016.2 - 0.0 - - 10 - - - -
24/05:30am 3.7 WNW 3 5 1016.1 - 0.0 - - 10 - - - -
24/05:00am 3.5 NW 5 6 1016.2 - 0.0 - Partly cloudy 10 - - - -
24/04:30am 4.9 NW 4 5 1016.1 - 0.0 - Partly cloudy 10 - - - -
24/04:00am 5.9 WNW 4 6 1016.0 - 0.0 - Partly cloudy 10 - - - -
24/03:30am 6.9 NW 3 4 1016.2 - 0.0 - Cloudy 10 - - - -
24/03:00am 6.9 NW 5 6 1016.5 - 0.0 - Cloudy 10 - - - -
24/02:30am 6.8 NW 4 5 1016.8 - 0.0 - Cloudy 10 - - - -
24/02:00am 6.8 WNW 4 4 1017.1 - 0.0 - Cloudy 10 - - - -
24/01:30am 6.9 WNW 5 7 1017.4 - 0.0 - Cloudy 10 - - - -
24/01:00am 6.7 NW 6 7 1017.6 - 0.0 - Cloudy 10 - - - -
24/12:30am 6.7 NW 6 7 1017.7 - 0.0 - Partly cloudy 10 - - - -
24/12:00am 6.3 WNW 6 7 1017.8 - 0.0 - Cloudy 10 - - - -
 
Date/Time
EST
Temp
°C
Wind Pressure Rain since
9am
mm
Weather Cloud Vis
km
Sea
Height
m
Swell
Dir  Spd
kts
Gust
kts
hPa Trend Height
m
Period
s
Dir
23/11:30pm 6.1 WNW 6 7 1017.8 - 0.0 - Partly cloudy 10 - - - -
23/11:00pm 5.7 NW 7 8 1017.8 - 0.0 - Cloudy 10 - - - -
23/10:30pm 5.0 NW 6 8 1017.9 - 0.0 - Cloudy 10 - - - -
23/10:00pm 5.1 NW 7 9 1017.9 - 0.0 - Partly cloudy 10 - - - -
23/09:30pm 4.2 WNW 6 7 1018.0 - 0.0 - Partly cloudy 10 - - - -
23/09:00pm 4.3 NW 6 7 1017.9 - 0.0 - - 10 - - - -
23/08:30pm 4.2 WNW 5 6 1017.8 - 0.0 - - 10 - - - -
23/08:00pm 4.0 W 4 4 1017.5 - 0.0 - - 10 - - - -
23/07:30pm 4.7 NW 4 5 1017.4 - 0.0 - - 10 - - - -
23/07:00pm 4.5 S 4 5 1017.3 - 0.0 - - 10 - - - -
23/06:30pm 7.7 SE 4 5 1017.1 - 0.0 - - 10 - - - -
23/06:00pm 8.5 S 6 7 1017.0 - 0.0 - - 10 - - - -
23/05:30pm 9.8 SSE 6 7 1017.1 - 0.0 - - 10 - - - -
23/05:00pm 10.8 SSE 6 7 1016.8 - 0.0 - - 10 - - - -
23/04:30pm 10.9 S 6 7 1016.7 - 0.0 - - 10 - - - -
23/04:00pm 11.8 S 7 8 1016.5 - 0.0 - - 10 - - - -
23/03:30pm 12.6 S 8 11 1016.3 - 0.0 - Partly cloudy 10 - - - -
23/03:00pm 12.6 SW 5 8 1016.1 - 0.0 - Partly cloudy 10 - - - -
23/02:30pm 13.9 WSW 4 6 1016.1 - 0.0 - Partly cloudy 10 - - - -
23/02:00pm 12.7 WSW 6 9 1016.1 - 0.0 - Partly cloudy 10 - - - -
23/01:30pm 12.8 SSW 7 9 1016.1 - 0.0 - Partly cloudy 10 - - - -
23/01:00pm 14.3 SW 5 12 1016.3 - 0.0 - Partly cloudy 10 - - - -
23/12:30pm 13.4 WSW 8 10 1016.4 - 0.0 - Partly cloudy 10 - - - -
23/12:00pm 12.5 SW 6 10 1016.8 - 0.0 - Cloudy 10 - - - -
23/11:30am 12.6 WSW 7 10 1016.9 - 0.0 - Partly cloudy 10 - - - -
23/11:00am 12.3 WSW 7 9 1017.3 - 0.0 - - 10 - - - -
23/10:30am 11.7 WSW 8 10 1017.7 - 0.0 - Partly cloudy 10 - - - -
23/10:00am 10.3 W 7 9 1017.7 - 0.0 - Cloudy 10 - - - -
23/09:30am 10.4 WSW 6 9 1017.6 - 0.0 - Cloudy 10 - - - -
23/09:00am 9.9 WNW 7 9 1017.5 - 0.0 - Cloudy 10 - - - -
23/08:30am 8.9 W 6 9 1017.2 - 0.0 - Partly cloudy 10 - - - -
23/08:00am 8.3 W 6 8 1016.9 - 0.0 - Partly cloudy 10 - - - -
23/07:30am 8.0 W 6 7 1016.6 - 0.0 - Cloudy 10 - - - -
23/07:00am 7.9 W 6 9 1016.2 - 0.0 - Partly cloudy 10 - - - -
23/06:30am 7.6 W 6 8 1016.0 - 0.0 - Partly cloudy 10 - - - -

Other Formats:

Comma delimited format used in spreadsheet applications
http://www.bom.gov.au/fwo/IDV60701/IDV60701.94912.axf

JavaScript Object Notation format (JSON) in row-major order
http://www.bom.gov.au/fwo/IDV60701/IDV60701.94912.json